createdAt,value
2022-09-01T00:01:20.722Z,5.97
2022-09-01T00:03:48.994Z,6.25
2022-09-01T00:06:22.350Z,6.25
2022-09-01T00:08:50.403Z,5.43
2022-09-01T00:11:19.129Z,5.32
2022-09-01T00:13:46.328Z,5.03
2022-09-01T00:16:16.496Z,5.22
2022-09-01T00:18:46.468Z,4.47
2022-09-01T00:21:14.040Z,5.07
2022-09-01T00:23:40.807Z,4.60
2022-09-01T00:26:07.535Z,5.20
2022-09-01T00:28:35.797Z,4.70
2022-09-01T00:31:03.547Z,4.53
2022-09-01T00:33:30.731Z,4.78
2022-09-01T00:35:57.438Z,4.85
2022-09-01T00:38:24.181Z,4.57
2022-09-01T00:40:51.005Z,4.50
2022-09-01T00:43:36.565Z,4.72
2022-09-01T00:46:05.778Z,4.10
2022-09-01T00:48:36.779Z,5.18
2022-09-01T00:51:06.086Z,5.68
2022-09-01T00:53:33.897Z,4.82
2022-09-01T00:56:01.083Z,4.85
2022-09-01T00:58:28.962Z,5.20
2022-09-01T01:00:55.952Z,5.18
2022-09-01T01:03:23.978Z,4.60
2022-09-01T01:05:54.443Z,4.97
2022-09-01T01:10:54.608Z,4.90
2022-09-01T01:13:21.936Z,4.72
2022-09-01T01:15:48.719Z,5.00
2022-09-01T01:18:23.254Z,4.97
2022-09-01T01:21:18.652Z,4.88
2022-09-01T01:23:50.925Z,4.75
2022-09-01T01:26:17.977Z,4.95
2022-09-01T01:28:45.468Z,5.22
2022-09-01T01:31:15.237Z,5.28
2022-09-01T01:33:45.841Z,5.47
2022-09-01T01:36:33.063Z,5.03
2022-09-01T01:39:07.574Z,4.80
2022-09-01T01:41:39.473Z,5.10
2022-09-01T01:44:06.498Z,5.28
2022-09-01T01:46:35.174Z,5.30
2022-09-01T01:49:02.828Z,5.03
2022-09-01T01:51:32.815Z,5.15
2022-09-01T01:54:05.599Z,5.15
2022-09-01T01:56:33.819Z,5.72
2022-09-01T01:59:02.007Z,4.63
2022-09-01T02:01:32.269Z,5.70
2022-09-01T02:04:00.920Z,4.97
2022-09-01T02:06:29.417Z,5.88
2022-09-01T02:08:59.042Z,5.23
2022-09-01T02:11:26.296Z,5.53
2022-09-01T02:13:57.110Z,4.90
2022-09-01T02:16:26.310Z,5.72
2022-09-01T02:18:53.891Z,6.00
2022-09-01T02:21:24.006Z,4.70
2022-09-01T02:23:59.515Z,4.45
2022-09-01T02:26:31.164Z,4.93
2022-09-01T02:29:04.600Z,4.78
2022-09-01T02:31:39.257Z,4.82
2022-09-01T02:34:13.824Z,4.70
2022-09-01T02:36:49.113Z,4.60
2022-09-01T02:39:23.339Z,4.40
2022-09-01T02:41:50.854Z,4.50
2022-09-01T02:44:23.206Z,4.70
2022-09-01T02:46:51.128Z,4.38
2022-09-01T02:49:25.767Z,4.75
2022-09-01T02:51:54.371Z,4.97
2022-09-01T02:54:24.703Z,4.65
2022-09-01T02:56:54.555Z,4.80
2022-09-01T02:59:26.282Z,4.82
2022-09-01T03:01:54.051Z,5.07
2022-09-01T03:04:22.350Z,4.90
2022-09-01T03:06:50.032Z,4.40
2022-09-01T03:09:18.130Z,4.60
2022-09-01T03:11:49.612Z,4.95
2022-09-01T03:14:17.099Z,4.50
2022-09-01T03:16:43.857Z,5.38
2022-09-01T03:19:12.026Z,4.20
2022-09-01T03:21:42.899Z,4.45
2022-09-01T03:24:16.830Z,4.47
2022-09-01T03:26:44.739Z,4.70
2022-09-01T03:29:15.631Z,4.43
2022-09-01T03:31:42.861Z,4.43
2022-09-01T03:34:11.013Z,4.30
2022-09-01T03:36:50.041Z,4.55
2022-09-01T03:39:21.940Z,3.97
2022-09-01T03:41:48.686Z,3.95
2022-09-01T03:44:16.318Z,4.10
2022-09-01T03:46:44.929Z,4.50
2022-09-01T03:49:15.189Z,4.05
2022-09-01T03:54:11.710Z,3.70
2022-09-01T03:56:41.590Z,3.83
2022-09-01T03:59:16.764Z,3.67
2022-09-01T04:01:45.508Z,3.83
2022-09-01T04:04:13.938Z,4.13
2022-09-01T04:06:43.068Z,3.88
2022-09-01T04:09:10.817Z,4.05
2022-09-01T04:11:43.763Z,3.80
2022-09-01T04:14:14.829Z,3.75
2022-09-01T04:17:01.991Z,3.50
2022-09-01T04:19:30.531Z,4.20
2022-09-01T04:22:00.155Z,3.60
2022-09-01T04:24:32.359Z,3.95
2022-09-01T04:27:02.160Z,3.70
2022-09-01T04:29:31.414Z,3.70
2022-09-01T04:32:07.930Z,3.67
2022-09-01T04:34:39.774Z,3.67
2022-09-01T04:37:14.724Z,3.50
2022-09-01T04:39:51.276Z,3.45
2022-09-01T04:42:21.713Z,3.47
2022-09-01T04:44:48.722Z,3.58
2022-09-01T04:47:17.104Z,3.20
2022-09-01T04:49:47.463Z,3.72
2022-09-01T04:52:14.805Z,3.28
2022-09-01T04:54:41.612Z,3.30
2022-09-01T04:57:08.495Z,3.80
2022-09-01T04:59:38.045Z,3.53
2022-09-01T05:02:09.509Z,3.13
2022-09-01T05:04:36.849Z,3.65
2022-09-01T05:07:05.057Z,3.30
2022-09-01T05:09:36.978Z,3.13
2022-09-01T05:12:23.490Z,3.25
2022-09-01T05:14:50.193Z,3.28
2022-09-01T05:17:18.793Z,3.13
2022-09-01T05:19:48.314Z,3.10
2022-09-01T05:22:16.266Z,3.42
2022-09-01T05:24:51.368Z,3.70
2022-09-01T05:27:22.819Z,3.50
2022-09-01T05:29:50.329Z,3.15
2022-09-01T05:32:17.123Z,3.28
2022-09-01T05:34:45.154Z,3.55
2022-09-01T05:37:16.002Z,3.33
2022-09-01T05:39:42.977Z,3.17
2022-09-01T05:42:10.069Z,2.65
2022-09-01T05:44:44.151Z,3.03
2022-09-01T05:47:20.555Z,2.58
2022-09-01T05:49:50.141Z,2.60
2022-09-01T05:52:16.998Z,2.33
2022-09-01T05:54:44.117Z,2.67
2022-09-01T05:57:32.696Z,2.70
2022-09-01T05:59:57.772Z,2.30
2022-09-01T06:02:27.236Z,2.83
2022-09-01T06:04:57.123Z,2.93
2022-09-01T06:07:28.476Z,2.45
2022-09-01T06:09:56.991Z,2.83
2022-09-01T06:12:24.729Z,2.50
2022-09-01T06:14:53.824Z,2.95
2022-09-01T06:17:24.760Z,3.03
2022-09-01T06:19:55.654Z,2.40
2022-09-01T06:24:56.932Z,2.75
2022-09-01T06:27:25.031Z,2.05
2022-09-01T06:29:56.147Z,2.78
2022-09-01T06:32:25.705Z,2.50
2022-09-01T06:34:52.806Z,2.47
2022-09-01T06:37:23.075Z,2.30
2022-09-01T06:39:53.887Z,2.60
2022-09-01T06:42:22.953Z,2.50
2022-09-01T06:44:55.626Z,2.60
2022-09-01T06:47:22.645Z,2.40
2022-09-01T06:49:51.825Z,2.40
2022-09-01T06:52:22.496Z,2.50
2022-09-01T06:54:52.115Z,2.50
2022-09-01T07:00:18.865Z,2.40
2022-09-01T07:02:48.461Z,2.40
2022-09-01T07:08:31.751Z,2.50
2022-09-01T07:12:08.791Z,2.80
2022-09-01T07:14:18.463Z,2.58
2022-09-01T07:16:51.835Z,2.55
2022-09-01T07:19:20.714Z,2.30
2022-09-01T07:24:46.099Z,2.55
2022-09-01T07:27:48.924Z,3.05
2022-09-01T07:30:18.549Z,2.67
2022-09-01T07:32:50.236Z,2.75
2022-09-01T07:35:21.158Z,2.20
2022-09-01T07:43:52.880Z,2.33
2022-09-01T07:46:41.023Z,2.25
2022-09-01T07:52:03.814Z,2.67
2022-09-01T07:54:31.722Z,2.90
2022-09-01T07:56:58.944Z,2.67
2022-09-01T07:59:29.383Z,2.30
2022-09-01T08:02:05.840Z,2.38
2022-09-01T08:04:34.566Z,2.65
2022-09-01T08:07:03.076Z,2.75
2022-09-01T08:09:38.144Z,2.72
2022-09-01T08:12:12.077Z,2.55
2022-09-01T08:14:46.975Z,2.80
2022-09-01T08:17:18.046Z,2.65
2022-09-01T08:22:47.917Z,2.95
2022-09-01T08:25:24.986Z,3.05
2022-09-01T08:27:59.835Z,2.90
2022-09-01T08:30:27.849Z,3.00
2022-09-01T08:32:55.004Z,2.83
2022-09-01T08:35:22.243Z,3.00
2022-09-01T08:37:49.315Z,3.33
2022-09-01T08:40:19.154Z,3.10
2022-09-01T08:43:09.956Z,2.90
2022-09-01T08:45:55.878Z,3.10
2022-09-01T08:49:16.411Z,3.50
2022-09-01T08:51:21.903Z,3.27
2022-09-01T08:54:34.336Z,3.22
2022-09-01T08:57:07.490Z,3.17
2022-09-01T08:59:53.354Z,4.13
2022-09-01T09:02:59.078Z,3.40
2022-09-01T09:05:25.805Z,3.80
2022-09-01T09:08:15.166Z,4.18
2022-09-01T09:11:03.755Z,4.30
2022-09-01T09:13:55.359Z,3.80
2022-09-01T09:16:27.725Z,4.57
2022-09-01T09:19:04.317Z,4.57
2022-09-01T09:21:48.640Z,3.92
2022-09-01T09:24:27.947Z,4.00
2022-09-01T09:27:03.859Z,3.72
2022-09-01T09:29:30.863Z,3.60
2022-09-01T09:32:22.550Z,3.22
2022-09-01T09:34:50.384Z,3.72
2022-09-01T09:37:21.863Z,3.90
2022-09-01T09:40:11.952Z,3.95
2022-09-01T09:45:29.047Z,4.00
2022-09-01T09:47:57.761Z,4.32
2022-09-01T09:50:31.083Z,3.72
2022-09-01T09:53:32.604Z,3.83
2022-09-01T09:56:03.359Z,4.38
2022-09-01T09:58:39.470Z,4.68
2022-09-01T10:01:07.721Z,4.15
2022-09-01T10:03:50.387Z,4.15
2022-09-01T10:06:47.102Z,4.22
2022-09-01T10:09:35.858Z,4.35
2022-09-01T10:12:03.226Z,4.65
2022-09-01T10:14:55.692Z,4.60
2022-09-01T10:17:35.898Z,4.10
2022-09-01T10:20:11.540Z,4.30
2022-09-01T10:22:39.928Z,3.80
2022-09-01T10:25:10.430Z,4.10
2022-09-01T10:27:40.894Z,3.97
2022-09-01T10:30:19.384Z,3.60
2022-09-01T10:33:06.799Z,3.55
2022-09-01T10:35:44.390Z,4.25
2022-09-01T10:38:20.654Z,3.55
2022-09-01T10:40:50.875Z,3.70
2022-09-01T10:45:57.718Z,3.28
2022-09-01T10:48:36.626Z,3.40
2022-09-01T10:51:18.542Z,3.22
2022-09-01T10:53:47.603Z,3.83
2022-09-01T10:56:28.322Z,3.38
2022-09-01T11:01:52.905Z,3.40
2022-09-01T11:04:24.434Z,3.30
2022-09-01T11:09:43.153Z,3.50
2022-09-01T11:12:13.840Z,3.28
2022-09-01T11:14:55.699Z,3.30
2022-09-01T11:17:29.310Z,3.40
2022-09-01T11:20:27.204Z,3.70
2022-09-01T11:23:08.756Z,2.80
2022-09-01T11:25:45.321Z,3.33
2022-09-01T11:28:18.012Z,3.45
2022-09-01T11:30:52.933Z,3.00
2022-09-01T11:33:47.614Z,3.40
2022-09-01T11:36:28.615Z,3.63
2022-09-01T11:39:07.540Z,3.00
2022-09-01T11:41:40.518Z,3.05
2022-09-01T11:44:31.727Z,3.13
2022-09-01T11:47:03.640Z,3.78
2022-09-01T11:49:39.586Z,3.63
2022-09-01T11:52:06.695Z,3.20
2022-09-01T11:54:41.541Z,3.28
2022-09-01T11:57:38.725Z,3.10
2022-09-01T12:00:12.234Z,2.90
2022-09-01T12:02:48.297Z,3.40
2022-09-01T12:05:44.183Z,3.42
2022-09-01T12:08:23.884Z,3.70
2022-09-01T12:13:20.229Z,3.10
2022-09-01T12:16:17.002Z,2.88
2022-09-01T12:18:51.281Z,3.80
2022-09-01T12:21:30.871Z,3.72
2022-09-01T12:24:15.591Z,3.97
2022-09-01T12:26:44.202Z,3.53
2022-09-01T12:29:13.785Z,3.20
2022-09-01T12:31:43.332Z,3.42
2022-09-01T12:34:41.707Z,3.20
2022-09-01T12:37:10.473Z,3.40
2022-09-01T12:39:39.833Z,3.30
2022-09-01T12:42:21.407Z,3.20
2022-09-01T12:44:54.114Z,3.70
2022-09-01T12:47:36.106Z,3.70
2022-09-01T12:50:10.655Z,3.70
2022-09-01T12:52:45.898Z,3.70
2022-09-01T12:58:07.444Z,2.92
2022-09-01T13:00:55.635Z,3.38
2022-09-01T13:03:22.917Z,3.75
2022-09-01T13:05:54.737Z,3.20
2022-09-01T13:08:27.161Z,3.17
2022-09-01T13:11:03.613Z,3.45
2022-09-01T13:13:30.532Z,2.92
2022-09-01T13:16:04.538Z,3.00
2022-09-01T13:18:31.337Z,3.25
2022-09-01T13:20:58.971Z,3.45
2022-09-01T13:23:25.914Z,3.30
2022-09-01T13:25:53.051Z,3.05
2022-09-01T13:28:21.042Z,3.38
2022-09-01T13:31:28.294Z,3.38
2022-09-01T13:36:44.879Z,3.40
2022-09-01T13:39:13.861Z,3.20
2022-09-01T13:41:40.602Z,3.50
2022-09-01T13:44:09.043Z,2.85
2022-09-01T13:46:59.049Z,3.28
2022-09-01T13:52:09.796Z,3.65
2022-09-01T13:54:36.835Z,3.30
2022-09-01T13:57:03.655Z,3.28
2022-09-01T13:59:30.886Z,2.80
2022-09-01T14:01:57.722Z,3.15
2022-09-01T14:04:24.521Z,2.72
2022-09-01T14:06:51.391Z,2.80
2022-09-01T14:09:18.124Z,3.00
2022-09-01T14:11:45.224Z,2.92
2022-09-01T14:14:12.009Z,3.00
2022-09-01T14:16:39.105Z,3.20
2022-09-01T14:19:06.381Z,3.20
2022-09-01T14:21:33.226Z,3.00
2022-09-01T14:24:00.725Z,2.70
2022-09-01T14:26:28.121Z,2.75
2022-09-01T14:28:55.687Z,2.83
2022-09-01T14:31:22.597Z,2.85
2022-09-01T14:33:49.676Z,2.92
2022-09-01T14:36:20.374Z,2.90
2022-09-01T14:38:49.075Z,2.83
2022-09-01T14:41:21.260Z,3.00
2022-09-01T14:43:49.927Z,3.08
2022-09-01T14:46:18.472Z,3.10
2022-09-01T14:48:47.083Z,3.10
2022-09-01T14:52:10.294Z,3.13
2022-09-01T14:54:15.530Z,2.45
2022-09-01T14:56:42.219Z,2.85
2022-09-01T14:59:09.688Z,2.83
2022-09-01T15:01:37.324Z,2.42
2022-09-01T15:04:04.062Z,2.40
2022-09-01T15:06:31.165Z,2.90
2022-09-01T15:08:57.919Z,2.88
2022-09-01T15:11:24.658Z,2.90
2022-09-01T15:13:52.666Z,2.30
2022-09-01T15:16:23.029Z,2.70
2022-09-01T15:18:51.163Z,2.78
2022-09-01T15:21:33.896Z,2.65
2022-09-01T15:24:02.176Z,2.83
2022-09-01T15:26:29.233Z,2.80
2022-09-01T15:28:57.496Z,2.50
2022-09-01T15:31:32.951Z,3.00
2022-09-01T15:34:01.659Z,2.78
2022-09-01T15:36:29.614Z,2.50
2022-09-01T15:38:58.018Z,2.58
2022-09-01T15:41:29.657Z,2.20
2022-09-01T15:43:57.601Z,2.45
2022-09-01T15:46:32.620Z,2.22
2022-09-01T15:49:00.954Z,2.20
2022-09-01T15:51:36.584Z,2.28
2022-09-01T15:54:29.702Z,2.13
2022-09-01T15:56:57.395Z,2.30
2022-09-01T15:59:24.053Z,2.30
2022-09-01T16:01:53.212Z,2.60
2022-09-01T16:04:25.475Z,2.40
2022-09-01T16:06:56.797Z,2.28
2022-09-01T16:09:25.700Z,2.17
2022-09-01T16:11:54.130Z,2.80
2022-09-01T16:14:23.508Z,2.40
2022-09-01T16:17:04.237Z,2.65
2022-09-01T16:19:55.911Z,3.83
2022-09-01T16:22:27.874Z,3.03
2022-09-01T16:24:59.711Z,2.90
2022-09-01T16:27:33.398Z,2.50
2022-09-01T16:30:10.632Z,2.70
2022-09-01T16:32:44.624Z,2.38
2022-09-01T16:35:12.490Z,2.58
2022-09-01T16:37:57.292Z,2.70
2022-09-01T16:40:43.524Z,2.50
2022-09-01T16:43:35.636Z,2.22
2022-09-01T16:46:07.664Z,2.10
2022-09-01T16:48:47.102Z,2.40
2022-09-01T16:51:20.760Z,2.50
2022-09-01T16:53:59.059Z,2.42
2022-09-01T16:56:35.591Z,2.20
2022-09-01T16:59:27.121Z,2.58
2022-09-01T17:02:15.910Z,2.47
2022-09-01T17:04:58.975Z,2.20
2022-09-01T17:07:29.848Z,2.45
2022-09-01T17:10:15.021Z,2.30
2022-09-01T17:12:46.832Z,2.40
2022-09-01T17:15:18.166Z,2.50
2022-09-01T17:17:51.409Z,2.33
2022-09-01T17:20:21.514Z,2.50
2022-09-01T17:22:52.673Z,2.47
2022-09-01T17:25:32.775Z,2.40
2022-09-01T17:28:08.421Z,2.35
2022-09-01T17:30:44.914Z,2.63
2022-09-01T17:33:24.115Z,2.30
2022-09-01T17:36:09.814Z,2.55
2022-09-01T17:38:48.972Z,2.20
2022-09-01T17:41:34.280Z,2.47
2022-09-01T17:44:21.154Z,2.30
2022-09-01T17:47:08.280Z,2.30
2022-09-01T17:49:58.576Z,2.50
2022-09-01T17:53:03.970Z,2.50
2022-09-01T17:55:46.306Z,2.67
2022-09-01T17:58:44.390Z,2.50
2022-09-01T18:01:21.489Z,2.70
2022-09-01T18:04:22.138Z,2.90
2022-09-01T18:07:01.165Z,2.67
2022-09-01T18:09:30.589Z,2.40
2022-09-01T18:12:10.167Z,2.70
2022-09-01T18:14:41.362Z,2.60
2022-09-01T18:17:25.313Z,2.40
2022-09-01T18:20:01.950Z,2.67
2022-09-01T18:22:32.707Z,2.85
2022-09-01T18:25:07.771Z,2.75
2022-09-01T18:27:36.097Z,2.63
2022-09-01T18:30:05.857Z,2.60
2022-09-01T18:32:58.239Z,2.13
2022-09-01T18:35:47.572Z,2.70
2022-09-01T18:38:32.651Z,2.70
2022-09-01T18:41:10.321Z,2.55
2022-09-01T18:43:54.128Z,2.20
2022-09-01T18:46:44.240Z,2.45
2022-09-01T18:49:39.764Z,2.60
2022-09-01T18:52:30.098Z,2.38
2022-09-01T18:55:04.560Z,2.92
2022-09-01T18:57:37.519Z,2.97
2022-09-01T19:00:17.786Z,2.67
2022-09-01T19:03:23.386Z,2.72
2022-09-01T19:06:05.138Z,3.20
2022-09-01T19:09:09.074Z,2.78
2022-09-01T19:11:58.497Z,2.75
2022-09-01T19:14:53.866Z,2.80
2022-09-01T19:17:58.001Z,2.78
2022-09-01T19:20:46.020Z,3.05
2022-09-01T19:23:26.171Z,2.67
2022-09-01T19:26:02.890Z,2.85
2022-09-01T19:28:45.725Z,2.83
2022-09-01T19:31:13.168Z,2.60
2022-09-01T19:33:43.789Z,2.90
2022-09-01T19:36:18.930Z,2.50
2022-09-01T19:38:46.237Z,2.63
2022-09-01T19:41:25.696Z,2.80
2022-09-01T19:43:59.260Z,3.03
2022-09-01T19:46:43.343Z,2.70
2022-09-01T19:49:17.216Z,2.78
2022-09-01T19:51:59.841Z,2.70
2022-09-01T19:54:52.044Z,2.83
2022-09-01T19:57:30.160Z,2.78
2022-09-01T20:00:03.480Z,2.63
2022-09-01T20:02:35.015Z,2.83
2022-09-01T20:05:09.507Z,2.55
2022-09-01T20:07:44.211Z,3.13
2022-09-01T20:10:23.420Z,2.45
2022-09-01T20:13:14.839Z,2.80
2022-09-01T20:16:14.641Z,3.00
2022-09-01T20:18:51.489Z,2.78
2022-09-01T20:21:21.556Z,2.80
2022-09-01T20:24:05.747Z,2.45
2022-09-01T20:26:51.870Z,2.80
2022-09-01T20:29:25.579Z,2.75
2022-09-01T20:31:57.715Z,2.45
2022-09-01T20:34:36.962Z,2.63
2022-09-01T20:37:31.534Z,2.83
2022-09-01T20:40:19.642Z,2.55
2022-09-01T20:42:50.709Z,2.72
2022-09-01T20:45:22.532Z,2.65
2022-09-01T20:47:58.083Z,2.95
2022-09-01T20:50:34.709Z,3.25
2022-09-01T20:53:07.721Z,3.03
2022-09-01T20:55:41.909Z,2.92
2022-09-01T20:58:16.251Z,2.70
2022-09-01T21:00:55.939Z,3.05
2022-09-01T21:03:57.828Z,2.85
2022-09-01T21:07:06.808Z,3.00
2022-09-01T21:09:43.179Z,3.28
2022-09-01T21:12:28.992Z,2.88
2022-09-01T21:15:16.750Z,2.85
2022-09-01T21:18:08.659Z,2.92
2022-09-01T21:20:41.797Z,3.00
2022-09-01T21:23:14.894Z,2.90
2022-09-01T21:25:46.539Z,3.05
2022-09-01T21:28:20.550Z,2.72
2022-09-01T21:30:55.167Z,2.80
2022-09-01T21:33:23.236Z,2.80
2022-09-01T21:35:50.640Z,3.13
2022-09-01T21:38:19.207Z,2.90
2022-09-01T21:40:47.299Z,2.78
2022-09-01T21:43:15.975Z,2.40
2022-09-01T21:45:43.117Z,2.90
2022-09-01T21:48:10.311Z,2.55
2022-09-01T21:50:41.037Z,2.40
2022-09-01T21:53:08.983Z,2.42
2022-09-01T21:55:37.650Z,2.40
2022-09-01T21:58:05.020Z,2.33
2022-09-01T22:00:33.870Z,2.50
2022-09-01T22:03:01.787Z,2.55
2022-09-01T22:05:31.185Z,2.30
2022-09-01T22:07:59.217Z,3.00
2022-09-01T22:10:28.448Z,2.60
2022-09-01T22:12:58.007Z,2.67
2022-09-01T22:15:26.222Z,2.50
2022-09-01T22:17:55.685Z,2.78
2022-09-01T22:20:24.058Z,2.63
2022-09-01T22:22:51.339Z,2.70
2022-09-01T22:25:21.285Z,2.40
2022-09-01T22:27:49.211Z,2.42
2022-09-01T22:30:16.964Z,2.42
2022-09-01T22:32:45.331Z,2.63
2022-09-01T22:35:12.947Z,2.70
2022-09-01T22:37:40.106Z,2.53
2022-09-01T22:40:08.064Z,2.75
2022-09-01T22:42:35.367Z,2.40
2022-09-01T22:45:03.700Z,2.58
2022-09-01T22:47:31.158Z,2.90
2022-09-01T22:50:02.351Z,2.30
2022-09-01T22:52:29.903Z,2.42
2022-09-01T22:54:57.245Z,2.40
2022-09-01T22:57:24.755Z,2.38
2022-09-01T22:59:51.459Z,2.30
2022-09-01T23:02:19.466Z,2.38
2022-09-01T23:04:47.434Z,2.88
2022-09-01T23:07:14.531Z,3.08
2022-09-01T23:09:41.594Z,2.75
2022-09-01T23:12:08.368Z,2.92
2022-09-01T23:14:35.138Z,2.60
2022-09-01T23:17:01.916Z,2.50
2022-09-01T23:19:28.738Z,2.50
2022-09-01T23:21:56.518Z,2.65
2022-09-01T23:24:23.811Z,2.50
2022-09-01T23:26:50.950Z,2.83
2022-09-01T23:29:18.142Z,3.20
2022-09-01T23:31:45.277Z,2.63
2022-09-01T23:34:13.277Z,2.75
2022-09-01T23:36:41.228Z,2.72
2022-09-01T23:39:08.904Z,2.58
2022-09-01T23:41:38.482Z,2.53
2022-09-01T23:44:09.831Z,3.00
2022-09-01T23:46:42.222Z,2.80
2022-09-01T23:49:10.363Z,2.90
2022-09-01T23:51:38.759Z,2.53
2022-09-01T23:54:11.006Z,2.80
2022-09-01T23:56:38.411Z,2.45
2022-09-01T23:59:06.080Z,3.00
